Time;durP1;ratioP1;P1;durP2;ratioP2;P2;SDS_P1;SDS_P2;PMS_P1;PMS_P2;Temp;Humidity;BMP_temperature;BMP_pressure;BME280_temperature;BME280_humidity;BME280_pressure;Samples;Min_cycle;Max_cycle;Signal;HPM_P1;HPM_P2
2022/03/31 00:00:21;;;;;;;42.40;31.85;;;;;;;2.00;100.00;98331.06;4934297;29;20392;-76
2022/03/31 00:02:46;;;;;;;40.08;31.88;;;;;;;2.05;100.00;98338.59;4934530;29;20027;-76
2022/03/31 00:05:13;;;;;;;39.78;33.47;;;;;;;1.99;100.00;98338.81;4934293;29;20034;-76
2022/03/31 00:07:52;;;;;;;43.13;30.55;;;;;;;2.08;100.00;98353.09;4934431;29;20543;-76
2022/03/31 00:10:22;;;;;;;38.63;30.30;;;;;;;2.07;100.00;98347.13;4934038;29;20028;-76
2022/03/31 00:12:48;;;;;;;39.85;32.88;;;;;;;1.91;100.00;98317.69;4934249;29;20035;-76
2022/03/31 00:15:14;;;;;;;35.95;29.30;;;;;;;1.93;100.00;98332.16;4934224;29;20039;-76
2022/03/31 00:17:39;;;;;;;38.08;31.35;;;;;;;2.04;100.00;98346.38;4934072;29;20048;-77
2022/03/31 00:20:05;;;;;;;39.45;28.00;;;;;;;1.91;100.00;98322.84;4934034;29;20044;-76
2022/03/31 00:22:31;;;;;;;40.55;29.92;;;;;;;1.82;100.00;98312.88;4934636;29;20062;-76
2022/03/31 00:24:56;;;;;;;41.38;30.08;;;;;;;1.94;100.00;98346.69;4934224;29;20429;-76
2022/03/31 00:27:21;;;;;;;35.33;27.42;;;;;;;1.93;100.00;98336.44;4933846;29;20035;-77
2022/03/31 00:29:47;;;;;;;34.17;27.50;;;;;;;1.94;100.00;98338.16;4934153;29;20071;-76
2022/03/31 00:32:13;;;;;;;36.40;26.85;;;;;;;1.88;100.00;98318.63;4932732;29;20372;-76
2022/03/31 00:34:39;;;;;;;33.47;25.05;;;;;;;1.79;100.00;98305.25;4934171;29;20032;-76
2022/03/31 00:37:04;;;;;;;29.23;24.45;;;;;;;1.93;100.00;98334.72;4933934;29;20032;-77
2022/03/31 00:39:31;;;;;;;34.50;24.55;;;;;;;1.82;100.00;98320.56;4932858;29;20035;-76
2022/03/31 00:41:58;;;;;;;31.38;25.33;;;;;;;1.69;100.00;98310.69;4936950;29;20023;-76
2022/03/31 00:44:24;;;;;;;34.13;27.10;;;;;;;1.79;100.00;98331.75;4937327;29;20040;-76
2022/03/31 00:46:52;;;;;;;36.80;28.67;;;;;;;1.65;100.00;98311.69;4937576;29;20428;-76
2022/03/31 00:49:19;;;;;;;35.22;28.60;;;;;;;1.74;100.00;98331.06;4937255;29;20038;-76
2022/03/31 00:51:46;;;;;;;38.67;27.13;;;;;;;1.64;100.00;98316.84;4937461;29;20104;-77
2022/03/31 00:54:12;;;;;;;35.08;26.70;;;;;;;1.60;100.00;98313.56;4935830;29;20083;-76
2022/03/31 00:56:38;;;;;;;34.47;25.55;;;;;;;1.66;100.00;98322.78;4937190;29;20028;-76
2022/03/31 00:59:06;;;;;;;34.63;25.85;;;;;;;1.69;100.00;98331.22;4936090;29;20037;-76
2022/03/31 01:01:32;;;;;;;32.50;25.52;;;;;;;1.66;100.00;98323.63;4937252;29;20473;-76
2022/03/31 01:04:00;;;;;;;33.42;24.77;;;;;;;1.65;100.00;98319.38;4937032;28;20115;-76
2022/03/31 01:06:25;;;;;;;36.78;27.85;;;;;;;1.69;100.00;98330.41;4936865;29;20155;-76
2022/03/31 01:08:50;;;;;;;32.72;27.27;;;;;;;1.49;100.00;98297.66;4937039;29;20119;-76
2022/03/31 01:11:16;;;;;;;37.85;27.30;;;;;;;1.62;100.00;98321.19;4936592;29;20030;-76
2022/03/31 01:13:41;;;;;;;37.78;27.40;;;;;;;1.60;100.00;98318.69;4935819;29;20036;-76
2022/03/31 01:16:07;;;;;;;33.08;27.20;;;;;;;1.64;100.00;98321.97;4936850;29;20484;-76
2022/03/31 01:18:34;;;;;;;36.20;27.08;;;;;;;1.60;100.00;98315.25;4936873;29;20554;-76
2022/03/31 01:21:01;;;;;;;40.25;30.33;;;;;;;1.57;100.00;98300.00;4936867;29;20035;-76
2022/03/31 01:23:28;;;;;;;50.25;37.63;;;;;;;1.67;100.00;98315.03;4936628;29;20035;-76
2022/03/31 01:25:53;;;;;;;41.65;28.20;;;;;;;1.67;100.00;98314.19;4936909;29;20392;-76
2022/03/31 01:28:19;;;;;;;37.35;27.70;;;;;;;1.56;100.00;98295.72;4936669;29;20030;-76
2022/03/31 01:30:44;;;;;;;38.10;25.02;;;;;;;1.57;100.00;98300.00;4936519;29;20497;-76
2022/03/31 01:33:11;;;;;;;32.85;22.67;;;;;;;1.54;100.00;98300.91;4936742;29;20032;-76
2022/03/31 01:35:36;;;;;;;28.33;21.13;;;;;;;1.54;100.00;98298.34;4936517;29;20395;-76
2022/03/31 01:38:02;;;;;;;29.38;20.98;;;;;;;1.54;100.00;98293.22;4936485;29;20036;-76
2022/03/31 01:40:27;;;;;;;28.95;20.80;;;;;;;1.53;100.00;98303.53;4936081;29;20039;-77
2022/03/31 01:42:53;;;;;;;28.83;20.60;;;;;;;1.63;100.00;98317.75;4936378;29;20168;-76
2022/03/31 01:45:18;;;;;;;27.65;20.63;;;;;;;1.62;100.00;98316.91;4936130;29;20020;-76
2022/03/31 01:47:44;;;;;;;25.17;20.08;;;;;;;1.58;100.00;98304.22;4936351;29;20534;-76
2022/03/31 01:50:11;;;;;;;30.58;22.00;;;;;;;1.57;100.00;98300.81;4936120;29;20020;-76
2022/03/31 01:52:37;;;;;;;30.48;20.45;;;;;;;1.53;100.00;98295.84;4935456;29;20111;-76
2022/03/31 01:55:04;;;;;;;28.55;20.60;;;;;;;1.50;100.00;98309.59;4936095;29;20042;-76
2022/03/31 01:57:30;;;;;;;28.00;21.90;;;;;;;1.53;100.00;98313.81;4936247;29;20039;-77
2022/03/31 01:59:55;;;;;;;31.20;19.92;;;;;;;1.48;100.00;98308.81;4936232;29;20036;-76
2022/03/31 02:02:22;;;;;;;29.80;21.27;;;;;;;1.57;100.00;98318.78;4935959;29;20090;-76
2022/03/31 02:04:48;;;;;;;30.63;22.73;;;;;;;1.52;100.00;98328.38;4936032;29;20488;-76
2022/03/31 02:07:13;;;;;;;30.48;22.40;;;;;;;1.57;100.00;98329.06;4935766;29;20055;-76
2022/03/31 02:09:39;;;;;;;31.45;24.30;;;;;;;1.53;100.00;98329.19;4936053;29;20491;-76
2022/03/31 02:12:06;;;;;;;49.75;42.05;;;;;;;1.50;100.00;98325.00;4934685;29;20118;-76
2022/03/31 02:14:37;;;;;;;39.58;32.42;;;;;;;1.57;100.00;98335.91;4935709;29;20036;-77
2022/03/31 02:17:04;;;;;;;31.40;23.08;;;;;;;1.59;100.00;98332.38;4935708;29;20114;-76
2022/03/31 02:19:30;;;;;;;30.60;21.10;;;;;;;1.48;100.00;98309.66;4935550;29;20034;-76
2022/03/31 02:21:55;;;;;;;26.88;19.80;;;;;;;1.50;100.00;98312.16;4935669;29;20031;-77
2022/03/31 02:24:21;;;;;;;28.88;21.98;;;;;;;1.61;100.00;98329.78;4935868;29;20494;-76
2022/03/31 02:26:48;;;;;;;33.83;25.38;;;;;;;1.58;100.00;98330.72;4934251;29;20032;-76
2022/03/31 02:29:13;;;;;;;28.67;22.60;;;;;;;1.62;100.00;98336.59;4934124;29;20028;-76
2022/03/31 02:31:39;;;;;;;34.67;28.42;;;;;;;1.60;100.00;98340.94;4934279;29;20038;-76
2022/03/31 02:34:04;;;;;;;29.65;24.33;;;;;;;1.55;100.00;98332.53;4935743;29;20114;-76
2022/03/31 02:36:30;;;;;;;27.40;20.38;;;;;;;1.52;100.00;98328.38;4935168;29;20487;-76
2022/03/31 02:38:56;;;;;;;28.45;23.58;;;;;;;1.48;100.00;98319.91;4935309;29;20490;-76
2022/03/31 02:41:21;;;;;;;27.38;20.65;;;;;;;1.48;100.00;98319.91;4935284;29;20119;-76
2022/03/31 02:43:47;;;;;;;25.25;20.00;;;;;;;1.49;100.00;98323.31;4935456;29;20031;-76
2022/03/31 02:46:13;;;;;;;30.65;23.10;;;;;;;1.53;100.00;98334.31;4935124;29;20163;-76
2022/03/31 02:48:39;;;;;;;29.30;23.25;;;;;;;1.48;100.00;98322.47;4935306;29;20153;-76
2022/03/31 02:51:04;;;;;;;27.27;21.02;;;;;;;1.53;100.00;98334.31;4935072;29;20035;-76
2022/03/31 02:56:14;;;;;;;26.63;21.05;;;;;;;1.47;100.00;98330.19;4934899;29;20034;-76
2022/03/31 02:58:39;;;;;;;27.20;20.13;;;;;;;1.41;100.00;98323.53;4933884;29;20392;-76
2022/03/31 03:01:05;;;;;;;34.03;24.48;;;;;;;1.36;100.00;98317.72;4935070;29;20042;-76
2022/03/31 03:03:32;;;;;;;26.77;20.95;;;;;;;1.37;100.00;98321.97;4934523;29;20023;-76
2022/03/31 03:05:58;;;;;;;34.75;21.30;;;;;;;1.41;100.00;98335.53;4934858;29;20476;-77
2022/03/31 03:08:26;;;;;;;30.05;21.60;;;;;;;1.37;100.00;98323.69;4934907;29;20024;-77
2022/03/31 03:10:52;;;;;;;23.88;19.88;;;;;;;1.35;100.00;98330.56;4935050;29;20032;-76
2022/03/31 03:13:18;;;;;;;33.65;21.17;;;;;;;1.30;100.00;98317.91;4934898;29;20490;-77
2022/03/31 03:15:43;;;;;;;27.88;21.20;;;;;;;1.36;100.00;98320.28;4934964;29;20027;-77
2022/03/31 03:18:09;;;;;;;28.77;21.50;;;;;;;1.35;100.00;98318.63;4933642;29;20048;-77
2022/03/31 03:20:35;;;;;;;34.92;21.75;;;;;;;1.35;100.00;98326.31;4933303;29;20044;-76
2022/03/31 03:23:00;;;;;;;32.92;22.23;;;;;;;1.35;100.00;98330.56;4933658;29;20175;-77
2022/03/31 03:25:26;;;;;;;27.15;21.17;;;;;;;1.33;100.00;98311.84;4934662;29;20020;-76
2022/03/31 03:27:51;;;;;;;27.38;20.85;;;;;;;1.32;100.00;98305.03;4934739;29;20107;-76
2022/03/31 03:30:18;;;;;;;29.38;22.15;;;;;;;1.23;100.00;98295.91;4934470;29;20031;-76
2022/03/31 03:32:45;;;;;;;32.78;22.23;;;;;;;1.27;100.00;98315.44;4934986;29;20093;-77
2022/03/31 03:35:12;;;;;;;67.82;56.42;;;;;;;1.27;100.00;98318.00;4934827;29;20024;-76
2022/03/31 03:37:39;;;;;;;49.88;33.38;;;;;;;1.27;100.00;98305.19;4934573;29;20147;-76
2022/03/31 03:40:07;;;;;;;36.55;25.25;;;;;;;1.30;100.00;98304.22;4934745;29;20035;-76
2022/03/31 03:42:33;;;;;;;44.42;29.00;;;;;;;1.28;100.00;98311.16;4933186;29;20377;-76
2022/03/31 03:44:59;;;;;;;29.73;23.20;;;;;;;1.13;100.00;98295.31;4933334;29;20547;-76
2022/03/31 03:47:25;;;;;;;105.22;62.40;;;;;;;1.25;100.00;98314.63;4932984;29;20039;-76
2022/03/31 03:49:51;;;;;;;87.53;46.47;;;;;;;1.15;100.00;98298.69;4934669;29;20028;-76
2022/03/31 03:52:17;;;;;;;41.17;26.98;;;;;;;1.16;100.00;98302.94;4934450;29;20090;-76
2022/03/31 03:54:42;;;;;;;30.90;22.80;;;;;;;1.24;100.00;98318.94;4934608;29;20032;-77
2022/03/31 03:57:08;;;;;;;30.17;24.42;;;;;;;1.21;100.00;98318.19;4934563;29;20038;-77
2022/03/31 03:59:33;;;;;;;44.70;25.58;;;;;;;1.08;100.00;98297.19;4934239;29;20480;-76
2022/03/31 04:02:02;;;;;;;28.50;21.40;;;;;;;1.09;100.00;98308.28;4934312;29;20060;-77
2022/03/31 04:04:29;;;;;;;28.60;22.63;;;;;;;1.09;100.00;98311.69;4934247;29;20098;-76
2022/03/31 04:06:56;;;;;;;41.20;26.73;;;;;;;1.14;100.00;98314.13;4934531;29;20042;-77
2022/03/31 04:09:22;;;;;;;30.20;23.92;;;;;;;1.15;100.00;98326.91;4934241;29;20032;-76
2022/03/31 04:11:47;;;;;;;39.00;27.35;;;;;;;1.09;100.00;98305.72;4932988;29;20452;-76
2022/03/31 04:14:13;;;;;;;35.70;28.05;;;;;;;1.08;100.00;98311.75;4934336;29;20028;-76
2022/03/31 04:16:38;;;;;;;36.20;26.88;;;;;;;1.07;100.00;98328.84;4935417;29;20373;-77
2022/03/31 04:19:07;;;;;;;47.63;31.70;;;;;;;1.02;100.00;98324.75;4938147;29;20048;-77
2022/03/31 04:21:34;;;;;;;29.88;23.13;;;;;;;1.04;100.00;98321.25;4937957;29;20050;-76
2022/03/31 04:23:59;;;;;;;31.58;24.30;;;;;;;1.02;100.00;98329.88;4937797;29;20031;-76
2022/03/31 04:26:24;;;;;;;31.05;23.15;;;;;;;0.98;100.00;98324.00;4937462;29;20031;-76
2022/03/31 04:28:50;;;;;;;35.05;25.45;;;;;;;1.00;100.00;98338.44;4937652;29;20078;-76
2022/03/31 04:31:15;;;;;;;62.17;36.35;;;;;;;0.98;100.00;98342.78;4937447;29;20028;-76
2022/03/31 04:33:40;;;;;;;40.63;29.77;;;;;;;0.89;100.00;98327.69;4937844;29;20480;-76
2022/03/31 04:36:06;;;;;;;35.00;27.55;;;;;;;1.01;100.00;98354.66;4937604;29;20066;-76
2022/03/31 04:38:31;;;;;;;42.25;31.90;;;;;;;0.88;100.00;98336.22;4937430;29;20031;-76
2022/03/31 04:40:57;;;;;;;45.95;31.60;;;;;;;0.89;100.00;98327.69;4937442;29;20028;-76
2022/03/31 04:43:22;;;;;;;44.17;32.67;;;;;;;0.91;100.00;98337.88;4937093;29;20082;-76
2022/03/31 04:45:48;;;;;;;41.38;31.25;;;;;;;0.83;100.00;98322.72;4937141;29;20028;-76
2022/03/31 04:48:13;;;;;;;35.63;27.30;;;;;;;0.96;100.00;98343.69;4937405;29;20491;-76
2022/03/31 04:50:38;;;;;;;36.90;27.63;;;;;;;0.96;100.00;98343.69;4937046;29;20059;-76
2022/03/31 04:53:06;;;;;;;32.63;24.77;;;;;;;0.86;100.00;98330.31;4937218;29;20031;-76
2022/03/31 04:55:32;;;;;;;29.33;22.58;;;;;;;0.91;100.00;98343.84;4936886;29;20082;-76
2022/03/31 04:57:57;;;;;;;31.10;24.00;;;;;;;0.95;100.00;98353.13;4935851;29;20467;-77
2022/03/31 05:00:22;;;;;;;27.65;21.38;;;;;;;0.93;100.00;98354.06;4936838;29;20645;-76
2022/03/31 05:02:48;;;;;;;27.23;20.58;;;;;;;0.86;100.00;98350.00;4937350;29;20034;-76
2022/03/31 05:05:13;;;;;;;32.10;22.67;;;;;;;0.88;100.00;98351.59;4937277;29;20027;-76
2022/03/31 05:07:39;;;;;;;33.00;24.42;;;;;;;0.89;100.00;98355.03;4936935;29;20432;-76
2022/03/31 05:10:05;;;;;;;47.72;31.67;;;;;;;0.92;100.00;98365.19;4936946;29;20345;-76
2022/03/31 05:12:31;;;;;;;47.72;40.60;;;;;;;0.90;100.00;98366.97;4936718;29;20032;-77
2022/03/31 05:14:56;;;;;;;36.40;28.48;;;;;;;0.88;100.00;98356.72;4936863;29;20047;-76
2022/03/31 05:17:21;;;;;;;49.03;33.05;;;;;;;0.82;100.00;98353.53;4936674;29;20090;-76
2022/03/31 05:19:47;;;;;;;42.78;31.63;;;;;;;0.94;100.00;98356.56;4936959;29;20028;-76
2022/03/31 05:22:13;;;;;;;43.85;33.58;;;;;;;0.94;100.00;98355.75;4935588;29;20340;-76
2022/03/31 05:24:38;;;;;;;45.38;33.30;;;;;;;0.89;100.00;98355.88;4936625;29;20505;-76
2022/03/31 05:27:04;;;;;;;60.72;40.20;;;;;;;0.84;100.00;98337.19;4935518;29;20055;-76
2022/03/31 05:29:29;;;;;;;60.97;41.30;;;;;;;0.93;100.00;98346.38;4936371;29;20024;-76
2022/03/31 05:31:57;;;;;;;46.03;34.78;;;;;;;0.92;100.00;98335.25;4936802;29;20032;-76
2022/03/31 05:34:23;;;;;;;84.75;53.25;;;;;;;0.93;100.00;98344.66;4936527;29;20039;-76
2022/03/31 05:36:49;;;;;;;43.95;32.75;;;;;;;0.92;100.00;98337.81;4936659;29;20042;-76
2022/03/31 05:39:14;;;;;;;65.40;42.00;;;;;;;0.92;100.00;98342.94;4936925;29;20028;-76
2022/03/31 05:41:40;;;;;;;59.72;42.88;;;;;;;1.04;100.00;98357.16;4936280;29;20403;-76
2022/03/31 05:44:05;;;;;;;54.63;39.88;;;;;;;1.11;100.00;98358.66;4936277;29;20023;-76
2022/03/31 05:46:31;;;;;;;57.17;41.05;;;;;;;1.07;100.00;98345.97;4936179;29;20038;-76
2022/03/31 05:48:56;;;;;;;44.80;34.55;;;;;;;1.16;100.00;98366.22;4936321;29;20023;-75
2022/03/31 05:51:22;;;;;;;51.95;36.08;;;;;;;1.10;100.00;98364.69;4936256;29;20032;-76
2022/03/31 05:53:47;;;;;;;39.95;31.75;;;;;;;1.10;100.00;98367.25;4936296;29;20024;-75
2022/03/31 05:56:12;;;;;;;47.53;35.33;;;;;;;1.03;100.00;98349.50;4936196;29;20542;-76
2022/03/31 05:58:38;;;;;;;54.55;41.38;;;;;;;1.12;100.00;98367.19;4936085;29;20027;-76
2022/03/31 06:01:04;;;;;;;56.17;45.75;;;;;;;1.12;100.00;98364.63;4936265;29;20118;-76
2022/03/31 06:03:30;;;;;;;44.47;34.30;;;;;;;1.10;100.00;98359.53;4935887;29;20059;-76
2022/03/31 06:05:56;;;;;;;56.70;42.72;;;;;;;1.09;100.00;98365.53;4936062;29;20468;-77
2022/03/31 06:08:21;;;;;;;54.65;40.40;;;;;;;1.02;100.00;98351.22;4935997;29;20031;-76
2022/03/31 06:10:47;;;;;;;42.90;33.08;;;;;;;1.07;100.00;98358.78;4934359;29;20035;-76
2022/03/31 06:13:13;;;;;;;32.95;26.45;;;;;;;0.92;100.00;98335.25;4935729;29;20038;-76
2022/03/31 06:15:39;;;;;;;75.53;42.85;;;;;;;0.97;100.00;98351.38;4935762;29;20038;-76
2022/03/31 06:18:06;;;;;;;38.83;28.77;;;;;;;1.02;100.00;98346.09;4935617;29;20040;-76
2022/03/31 06:20:34;;;;;;;39.33;25.02;;;;;;;1.03;100.00;98346.94;4935593;29;20391;-76
2022/03/31 06:23:00;;;;;;;33.40;24.92;;;;;;;0.93;100.00;98342.09;4935768;29;20031;-76
2022/03/31 06:25:25;;;;;;;52.90;34.33;;;;;;;1.04;100.00;98375.09;4935401;29;20086;-76
2022/03/31 06:27:51;;;;;;;48.42;30.35;;;;;;;0.82;100.00;98349.22;4935511;29;20027;-76
2022/03/31 06:30:16;;;;;;;48.53;31.40;;;;;;;1.00;100.00;98383.75;4934285;29;20063;-76
2022/03/31 06:32:43;;;;;;;49.80;29.65;;;;;;;0.94;100.00;98374.53;4935454;29;20111;-76
2022/03/31 06:35:14;;;;;;;57.58;37.55;;;;;;;0.85;100.00;98353.44;4935597;29;20032;-76
2022/03/31 06:37:43;;;;;;;57.70;35.45;;;;;;;1.06;100.00;98382.75;4934981;29;20035;-76
2022/03/31 06:40:15;;;;;;;58.75;33.72;;;;;;;0.98;100.00;98376.13;4935311;29;20035;-76
2022/03/31 06:42:42;;;;;;;68.50;35.40;;;;;;;0.99;100.00;98376.94;4935567;29;20070;-76
2022/03/31 06:45:12;;;;;;;41.85;25.17;;;;;;;1.07;100.00;98379.31;4935259;29;20040;-76
2022/03/31 06:47:43;;;;;;;37.63;27.42;;;;;;;1.04;100.00;98369.13;4935198;29;20027;-76
2022/03/31 06:50:09;;;;;;;54.90;30.35;;;;;;;1.08;100.00;98368.16;4935245;29;20032;-76
2022/03/31 06:52:35;;;;;;;50.42;30.23;;;;;;;1.09;100.00;98367.25;4935148;29;20024;-76
2022/03/31 06:55:00;;;;;;;37.53;26.58;;;;;;;1.13;100.00;98372.25;4951887;29;20509;-76
2022/03/31 06:57:26;;;;;;;37.30;28.00;;;;;;;1.14;100.00;98376.53;4951924;29;20046;-75
2022/03/31 06:59:51;;;;;;;47.67;30.55;;;;;;;1.18;100.00;98380.69;4951626;29;20053;-76
2022/03/31 07:02:17;;;;;;;140.32;74.68;;;;;;;1.09;100.00;98359.56;4935672;29;20053;-77
2022/03/31 07:04:43;;;;;;;40.85;31.83;;;;;;;1.09;100.00;98362.13;4951614;29;20102;-76
2022/03/31 07:07:08;;;;;;;34.15;25.73;;;;;;;1.22;100.00;98386.53;4951734;28;20391;-76
2022/03/31 07:09:34;;;;;;;44.97;29.10;;;;;;;1.20;100.00;98389.16;4935181;29;20039;-75
2022/03/31 07:11:59;;;;;;;39.63;28.00;;;;;;;1.19;100.00;98395.19;4935605;29;20042;-76
2022/03/31 07:14:24;;;;;;;30.08;20.92;;;;;;;1.17;100.00;98396.94;4951594;29;20051;-76
2022/03/31 07:16:50;;;;;;;28.38;22.00;;;;;;;1.13;100.00;98373.97;4935119;29;20390;-76
2022/03/31 07:19:15;;;;;;;30.05;21.52;;;;;;;1.22;100.00;98368.59;4951713;29;20023;-77
2022/03/31 07:21:41;;;;;;;33.10;23.40;;;;;;;1.17;100.00;98355.91;4951563;28;20047;-76
2022/03/31 07:24:06;;;;;;;39.13;27.00;;;;;;;1.37;100.00;98375.00;4951484;28;20542;-77
2022/03/31 07:26:32;;;;;;;26.45;20.63;;;;;;;1.23;100.00;98366.00;4939099;29;20051;-76
2022/03/31 07:28:57;;;;;;;27.42;20.95;;;;;;;1.22;100.00;98366.00;4935078;29;20027;-77
2022/03/31 07:31:26;;;;;;;46.95;27.73;;;;;;;1.33;100.00;98368.28;4934745;29;20466;-76
2022/03/31 07:33:51;;;;;;;30.30;21.85;;;;;;;1.38;100.00;98363.84;4932823;29;20054;-77
2022/03/31 07:36:18;;;;;;;33.92;24.30;;;;;;;1.52;100.00;98365.97;4934549;29;20477;-77
2022/03/31 07:38:45;;;;;;;32.55;24.30;;;;;;;1.45;100.00;98360.22;4934244;29;20036;-78
2022/03/31 07:41:12;;;;;;;29.80;23.08;;;;;;;1.49;100.00;98374.63;4934673;29;20083;-77
2022/03/31 07:43:37;;;;;;;32.38;23.23;;;;;;;1.48;100.00;98383.22;4934435;29;20583;-78
2022/03/31 07:46:03;;;;;;;40.55;26.42;;;;;;;1.43;100.00;98361.97;4934573;29;20102;-77
2022/03/31 07:48:28;;;;;;;33.80;23.85;;;;;;;1.55;100.00;98379.56;4934490;29;20030;-78
2022/03/31 07:50:56;;;;;;;38.15;25.48;;;;;;;1.50;100.00;98373.75;4935945;29;20174;-76
2022/03/31 07:53:22;;;;;;;30.02;22.38;;;;;;;1.61;100.00;98379.41;4938181;29;20095;-76
2022/03/31 07:55:48;;;;;;;34.70;24.15;;;;;;;1.70;100.00;98375.69;4938208;29;20118;-77
2022/03/31 07:58:13;;;;;;;38.25;25.33;;;;;;;1.72;100.00;98390.16;4937138;29;20051;-76
2022/03/31 08:00:39;;;;;;;41.22;26.85;;;;;;;1.74;100.00;98375.56;4937052;29;20046;-76
2022/03/31 08:03:04;;;;;;;41.53;27.60;;;;;;;1.80;100.00;98383.94;4936861;29;20031;-77
2022/03/31 08:05:30;;;;;;;52.58;32.28;;;;;;;1.80;100.00;98374.50;4936957;29;20629;-77
2022/03/31 08:07:57;;;;;;;44.08;27.65;;;;;;;1.86;100.00;98366.63;4936420;29;20391;-77
2022/03/31 08:10:23;;;;;;;42.72;27.38;;;;;;;1.85;100.00;98366.66;4938164;29;20150;-77
2022/03/31 08:12:49;;;;;;;40.05;28.73;;;;;;;1.89;100.00;98379.34;4937965;29;20031;-76
2022/03/31 08:15:16;;;;;;;36.15;24.08;;;;;;;1.85;100.00;98380.34;4937801;29;20058;-78
2022/03/31 08:17:43;;;;;;;54.80;29.23;;;;;;;1.82;100.00;98370.19;4936292;29;20070;-78
2022/03/31 08:20:10;;;;;;;31.88;23.55;;;;;;;1.77;100.00;98366.06;4936477;29;20043;-77
2022/03/31 08:22:36;;;;;;;38.08;26.58;;;;;;;1.83;100.00;98373.59;4937703;29;20070;-77
2022/03/31 08:25:03;;;;;;;33.60;24.48;;;;;;;1.86;100.00;98386.34;4936562;29;20038;-78
2022/03/31 08:27:30;;;;;;;29.67;22.00;;;;;;;1.90;100.00;98388.75;4936461;29;20372;-77
2022/03/31 08:29:55;;;;;;;34.03;23.50;;;;;;;1.93;100.00;98380.94;4937493;29;20157;-77
2022/03/31 08:32:21;;;;;;;35.83;25.42;;;;;;;1.90;100.00;98368.22;4937687;29;20078;-77
2022/03/31 08:34:47;;;;;;;33.38;23.88;;;;;;;1.89;100.00;98370.81;4937228;29;20034;-77
2022/03/31 08:37:13;;;;;;;35.92;23.92;;;;;;;2.02;100.00;98386.66;4937691;29;20027;-76
2022/03/31 08:39:38;;;;;;;39.25;24.52;;;;;;;2.18;100.00;98390.41;4937454;29;20028;-79
2022/03/31 08:42:06;;;;;;;35.10;24.10;;;;;;;2.27;100.00;98396.97;4937826;29;20499;-77
2022/03/31 08:44:34;;;;;;;44.63;27.75;;;;;;;2.28;100.00;98399.50;4936179;29;20475;-77
2022/03/31 08:47:00;;;;;;;33.20;24.25;;;;;;;2.23;100.00;98380.81;4936066;29;20027;-77
2022/03/31 08:49:26;;;;;;;42.70;25.45;;;;;;;2.25;100.00;98385.03;4937204;29;20059;-79
2022/03/31 08:51:51;;;;;;;29.83;21.88;;;;;;;2.19;100.00;98380.09;4935620;29;20032;-79
2022/03/31 08:54:17;;;;;;;29.08;21.30;;;;;;;2.20;100.00;98376.63;4936002;29;20039;-77
2022/03/31 08:56:42;;;;;;;32.10;22.75;;;;;;;2.10;100.00;98371.84;4936886;29;20038;-76
2022/03/31 08:59:08;;;;;;;28.73;21.73;;;;;;;2.16;100.00;98397.34;4935943;29;20110;-79
2022/03/31 09:01:34;;;;;;;36.70;28.13;;;;;;;2.10;100.00;98393.22;4935463;29;20476;-76
2022/03/31 09:04:00;;;;;;;36.40;26.42;;;;;;;2.10;100.00;98389.81;4936669;29;20059;-77
2022/03/31 09:06:30;;;;;;;75.40;52.97;;;;;;;2.13;100.00;98384.59;4937193;29;20042;-76
2022/03/31 09:09:00;;;;;;;72.03;41.30;;;;;;;2.23;100.00;98384.25;4936845;29;20030;-78
2022/03/31 09:11:29;;;;;;;67.65;38.78;;;;;;;2.27;100.00;98392.66;4936907;29;20031;-76
2022/03/31 09:13:57;;;;;;;41.38;26.65;;;;;;;2.36;100.00;98387.25;4936719;29;20499;-76
2022/03/31 09:16:35;;;;;;;37.83;27.27;;;;;;;2.34;100.00;98373.59;4935491;29;20031;-76
2022/03/31 09:19:09;;;;;;;32.17;23.55;;;;;;;2.37;100.00;98370.09;4936854;29;20051;-76
2022/03/31 09:21:57;;;;;;;41.92;27.42;;;;;;;2.39;100.00;98373.44;4936739;29;20496;-75
2022/03/31 09:24:24;;;;;;;32.85;23.88;;;;;;;2.52;100.00;98397.00;4936818;29;20488;-75
2022/03/31 09:26:51;;;;;;;44.38;31.45;;;;;;;2.47;100.00;98387.72;4936336;29;20027;-77
2022/03/31 09:29:20;;;;;;;57.72;34.70;;;;;;;2.57;100.00;98408.81;4936497;29;20070;-79
2022/03/31 09:31:47;;;;;;;43.15;27.38;;;;;;;2.52;100.00;98387.56;4935063;29;20031;-80
2022/03/31 09:34:13;;;;;;;41.13;27.48;;;;;;;2.62;100.00;98386.34;4935351;29;20039;-77
2022/03/31 09:36:43;;;;;;;45.85;28.10;;;;;;;2.73;100.00;98403.97;4934992;29;20043;-79
2022/03/31 09:39:13;;;;;;;34.10;23.63;;;;;;;2.71;100.00;98398.06;4935180;29;20047;-78
2022/03/31 09:41:41;;;;;;;44.20;29.05;;;;;;;2.70;100.00;98392.06;4936064;29;20103;-75
2022/03/31 09:44:13;;;;;;;29.55;22.58;;;;;;;2.73;100.00;98378.25;4936474;29;20106;-77
2022/03/31 09:46:39;;;;;;;45.40;27.58;;;;;;;2.87;100.00;98393.22;4934726;29;20035;-77
2022/03/31 09:49:16;;;;;;;43.22;27.88;;;;;;;2.70;100.00;98374.06;4936332;29;20055;-76
2022/03/31 09:51:44;;;;;;;43.40;30.33;;;;;;;2.81;100.00;98396.00;4935884;29;20391;-76
2022/03/31 09:54:10;;;;;;;28.35;20.50;;;;;;;2.79;100.00;98383.19;4936058;29;20042;-79
2022/03/31 09:56:39;;;;;;;31.52;22.80;;;;;;;2.82;100.00;98377.91;4936515;29;20115;-77
2022/03/31 09:59:07;;;;;;;29.33;22.40;;;;;;;2.92;100.00;98389.56;4936096;29;20055;-77
2022/03/31 10:01:34;;;;;;;23.98;19.98;;;;;;;3.03;100.00;98396.06;4936401;29;20031;-77
2022/03/31 10:04:00;;;;;;;37.50;25.48;;;;;;;2.87;100.00;98373.47;4934410;29;20031;-77
2022/03/31 10:06:25;;;;;;;31.92;23.02;;;;;;;3.04;100.00;98392.63;4935867;29;20023;-77
2022/03/31 10:08:51;;;;;;;25.75;21.35;;;;;;;3.06;100.00;98388.22;4935498;29;20067;-77
2022/03/31 10:11:19;;;;;;;25.13;20.02;;;;;;;3.08;100.00;98399.31;4934630;29;20075;-76
2022/03/31 10:14:21;;;;;;;26.77;20.10;;;;;;;3.09;100.00;98388.97;4935010;29;20114;-76
2022/03/31 10:17:00;;;;;;;29.20;21.42;;;;;;;3.13;100.00;98375.09;4934911;29;20020;-76
2022/03/31 10:19:39;;;;;;;26.20;20.90;;;;;;;3.27;100.00;98361.72;4935401;29;20055;-76
2022/03/31 10:22:09;;;;;;;33.47;21.63;;;;;;;3.47;100.00;98372.09;4934177;29;20035;-77
2022/03/31 10:24:41;;;;;;;39.90;25.33;;;;;;;3.59;100.00;98355.34;4935548;29;20020;-79
2022/03/31 10:27:07;;;;;;;26.35;18.92;;;;;;;3.73;100.00;98358.19;4935569;29;20032;-75
2022/03/31 10:29:38;;;;;;;24.35;19.27;;;;;;;3.69;100.00;98346.34;4935782;29;20035;-78
2022/03/31 10:32:21;;;;;;;26.73;19.50;;;;;;;3.85;100.00;98349.16;4935204;29;20480;-76
2022/03/31 10:34:48;;;;;;;22.83;18.40;;;;;;;4.15;100.00;98346.22;4935343;29;20024;-76
2022/03/31 10:37:17;;;;;;;30.48;22.58;;;;;;;4.23;100.00;98347.59;4935434;29;20035;-80
2022/03/31 10:39:55;;;;;;;26.42;21.10;;;;;;;4.34;100.00;98341.13;4933823;29;20031;-76
2022/03/31 10:42:25;;;;;;;37.33;24.05;;;;;;;4.44;100.00;98339.84;4935439;29;20031;-78
2022/03/31 10:45:07;;;;;;;32.10;26.27;;;;;;;4.50;100.00;98340.41;4933846;29;20035;-77
2022/03/31 10:47:35;;;;;;;30.75;24.15;;;;;;;4.45;100.00;98350.09;4935167;29;20139;-77
2022/03/31 10:50:01;;;;;;;24.65;19.95;;;;;;;4.28;100.00;98326.78;4934884;29;20063;-77
2022/03/31 10:52:28;;;;;;;58.75;41.75;;;;;;;4.33;100.00;98340.28;4935226;29;20423;-77
2022/03/31 10:55:08;;;;;;;23.58;17.65;;;;;;;4.28;99.94;98342.22;4934963;29;20066;-76
2022/03/31 10:57:42;;;;;;;61.35;33.22;;;;;;;4.29;100.00;98341.31;4935176;29;20095;-76
2022/03/31 11:00:10;;;;;;;26.65;18.92;;;;;;;4.29;100.00;98343.91;4935054;29;20035;-78
2022/03/31 11:02:41;;;;;;;62.65;31.85;;;;;;;4.17;100.00;98342.69;4934849;29;20032;-78
2022/03/31 11:05:07;;;;;;;68.72;35.72;;;;;;;4.13;100.00;98342.84;4935049;29;20038;-79
2022/03/31 11:07:33;;;;;;;33.25;22.23;;;;;;;4.13;100.00;98346.31;4935304;29;20132;-77
2022/03/31 11:10:03;;;;;;;83.72;40.50;;;;;;;4.12;100.00;98351.50;4934972;29;20161;-80
2022/03/31 11:12:29;;;;;;;140.73;83.60;;;;;;;4.13;100.00;98336.00;4933528;29;20083;-80
2022/03/31 11:15:05;;;;;;;34.28;23.30;;;;;;;4.13;100.00;98336.00;4933137;29;20035;-79
2022/03/31 11:17:31;;;;;;;72.95;35.00;;;;;;;4.09;100.00;98323.28;4934397;29;20519;-83